Time;durP1;ratioP1;P1;durP2;ratioP2;P2;SDS_P1;SDS_P2;PMS_P1;PMS_P2;Temp;Humidity;BMP_temperature;BMP_pressure;BME280_temperature;BME280_humidity;BME280_pressure;Samples;Min_cycle;Max_cycle;Signal;HPM_P1;HPM_P2
2021/03/30 00:00:50;;;;;;;6.82;3.38;;;12.10;60.00;;;;;;5013560;28;20393;-73
2021/03/30 00:03:16;;;;;;;10.43;3.60;;;12.10;60.10;;;;;;5008224;28;20145;-73
2021/03/30 00:05:42;;;;;;;8.63;3.40;;;12.00;60.70;;;;;;5006400;28;20487;-73
2021/03/30 00:08:07;;;;;;;9.07;3.45;;;12.00;61.10;;;;;;5002689;28;20105;-73
2021/03/30 00:10:39;;;;;;;9.27;3.38;;;11.90;61.90;;;;;;5006659;28;20378;-73
2021/03/30 00:13:05;;;;;;;11.50;4.15;;;11.90;61.80;;;;;;5000840;28;20021;-73
2021/03/30 00:15:31;;;;;;;8.45;3.53;;;12.00;62.20;;;;;;5012944;28;20041;-75
2021/03/30 00:17:57;;;;;;;10.98;3.53;;;11.90;62.70;;;;;;5013091;28;20049;-75
2021/03/30 00:20:23;;;;;;;8.77;3.42;;;11.90;62.70;;;;;;5012905;28;20068;-75
2021/03/30 00:22:49;;;;;;;8.20;3.25;;;11.90;62.70;;;;;;5012764;28;20460;-75
2021/03/30 00:25:15;;;;;;;7.22;3.10;;;11.90;62.20;;;;;;5009472;28;20057;-73
2021/03/30 00:27:41;;;;;;;10.52;3.55;;;11.90;61.90;;;;;;5013312;28;20398;-73
2021/03/30 00:30:09;;;;;;;7.78;3.78;;;11.90;61.00;;;;;;5011681;28;20036;-73
2021/03/30 00:32:35;;;;;;;11.98;3.40;;;12.10;60.80;;;;;;5001168;28;20496;-73
2021/03/30 00:35:00;;;;;;;8.25;3.28;;;12.30;60.00;;;;;;5012408;28;20030;-75
2021/03/30 00:37:26;;;;;;;8.45;3.80;;;12.30;59.60;;;;;;5007563;28;20027;-75
2021/03/30 00:39:52;;;;;;;10.38;3.58;;;12.40;59.40;;;;;;5009356;28;20044;-73
2021/03/30 00:42:21;;;;;;;8.00;3.65;;;12.40;59.90;;;;;;5013218;28;20053;-73
2021/03/30 00:44:46;;;;;;;9.35;3.38;;;12.30;59.70;;;;;;5003847;28;20034;-75
2021/03/30 00:47:15;;;;;;;9.93;3.45;;;12.30;60.20;;;;;;5012539;28;20061;-75
2021/03/30 00:49:42;;;;;;;5.97;2.83;;;12.30;61.00;;;;;;5012753;28;20088;-73
2021/03/30 00:52:08;;;;;;;9.77;3.65;;;12.20;61.00;;;;;;5012647;28;20117;-73
2021/03/30 00:54:35;;;;;;;9.80;3.60;;;12.20;61.20;;;;;;4999705;28;20113;-73
2021/03/30 00:57:00;;;;;;;9.82;3.78;;;12.10;61.30;;;;;;5012649;28;20104;-75
2021/03/30 00:59:27;;;;;;;8.60;3.85;;;12.10;61.80;;;;;;5012554;28;20101;-75
2021/03/30 01:01:53;;;;;;;12.65;3.88;;;12.00;62.20;;;;;;5004750;28;20027;-75
2021/03/30 01:04:19;;;;;;;11.48;3.60;;;12.00;62.60;;;;;;4993436;28;20026;-73
2021/03/30 01:06:46;;;;;;;9.35;4.18;;;11.90;62.60;;;;;;4992583;28;20109;-73
2021/03/30 01:09:35;;;;;;;12.13;3.63;;;11.90;63.00;;;;;;4993930;28;20027;-75
2021/03/30 01:12:07;;;;;;;8.05;3.53;;;11.80;63.80;;;;;;4997002;28;20025;-75
2021/03/30 01:14:53;;;;;;;18.58;3.80;;;11.70;63.80;;;;;;5012278;28;20018;-73
2021/03/30 01:17:43;;;;;;;9.32;3.35;;;11.60;64.10;;;;;;5011953;28;20456;-73
2021/03/30 01:20:42;;;;;;;12.95;3.00;;;11.60;64.50;;;;;;5010877;28;20396;-73
2021/03/30 01:23:25;;;;;;;11.18;4.20;;;11.60;64.90;;;;;;5011491;28;20524;-75
2021/03/30 01:26:36;;;;;;;8.77;3.92;;;11.50;65.20;;;;;;5005363;28;20019;-75
2021/03/30 01:29:11;;;;;;;12.90;3.80;;;11.60;65.60;;;;;;4995752;28;20050;-73
2021/03/30 01:31:40;;;;;;;8.10;3.60;;;11.60;65.80;;;;;;5001380;28;20023;-75
2021/03/30 01:34:07;;;;;;;10.65;3.83;;;11.70;65.50;;;;;;5012107;28;20053;-74
2021/03/30 01:36:36;;;;;;;6.78;3.22;;;11.60;65.70;;;;;;5011830;28;20073;-75
2021/03/30 01:39:05;;;;;;;8.18;3.58;;;11.60;65.80;;;;;;5003674;28;20018;-74
2021/03/30 01:41:32;;;;;;;11.65;3.88;;;11.50;65.80;;;;;;5012452;28;20420;-73
2021/03/30 01:43:59;;;;;;;16.00;4.93;;;11.50;66.30;;;;;;5008744;28;20026;-75
2021/03/30 01:46:29;;;;;;;9.90;3.28;;;11.40;66.80;;;;;;5007373;28;20045;-75
2021/03/30 01:48:57;;;;;;;9.15;3.67;;;11.30;66.90;;;;;;5012343;28;20057;-73
2021/03/30 01:51:23;;;;;;;13.57;4.03;;;11.20;67.30;;;;;;5011860;28;20040;-73
2021/03/30 01:53:49;;;;;;;14.40;4.25;;;11.10;67.70;;;;;;5009572;28;20034;-75
2021/03/30 01:56:17;;;;;;;8.43;3.60;;;11.10;68.00;;;;;;5009075;28;20026;-75
2021/03/30 01:58:43;;;;;;;14.90;3.95;;;11.10;68.30;;;;;;4994950;28;20101;-75
2021/03/30 02:01:12;;;;;;;10.65;3.80;;;11.00;68.60;;;;;;4995938;28;20390;-73
2021/03/30 02:03:40;;;;;;;10.70;4.25;;;11.00;68.90;;;;;;4996162;28;20157;-73
2021/03/30 02:06:07;;;;;;;14.55;4.72;;;10.90;69.40;;;;;;4994916;28;20058;-75
2021/03/30 02:08:34;;;;;;;10.02;4.05;;;10.90;69.60;;;;;;4994650;28;20026;-75
2021/03/30 02:11:00;;;;;;;11.30;3.90;;;10.90;70.40;;;;;;5012157;28;20017;-75
2021/03/30 02:13:40;;;;;;;14.73;4.13;;;10.90;70.00;;;;;;5013680;28;20733;-75
2021/03/30 02:16:11;;;;;;;10.90;4.05;;;10.90;70.20;;;;;;5014416;28;20042;-75
2021/03/30 02:18:51;;;;;;;10.73;3.58;;;10.90;70.70;;;;;;5015399;28;20405;-75
2021/03/30 02:21:22;;;;;;;13.65;4.22;;;10.90;70.70;;;;;;5015212;28;20018;-75
2021/03/30 02:23:49;;;;;;;8.52;4.15;;;11.00;70.70;;;;;;5012743;28;20029;-75
2021/03/30 02:26:16;;;;;;;10.90;3.72;;;10.90;70.70;;;;;;5006206;28;20101;-73
2021/03/30 02:29:04;;;;;;;12.95;4.03;;;10.90;71.00;;;;;;5011477;28;20026;-75
2021/03/30 02:31:33;;;;;;;9.05;3.67;;;10.80;71.40;;;;;;5003496;28;20110;-75
2021/03/30 02:34:02;;;;;;;10.15;4.20;;;10.80;71.90;;;;;;5014537;28;20037;-75
2021/03/30 02:36:30;;;;;;;9.77;4.53;;;10.80;71.90;;;;;;5014862;28;20022;-73
2021/03/30 02:39:04;;;;;;;9.77;4.43;;;10.80;72.40;;;;;;5006095;28;20093;-73
2021/03/30 02:41:30;;;;;;;8.68;3.88;;;10.70;72.30;;;;;;5014980;28;20022;-75
2021/03/30 02:43:59;;;;;;;9.13;4.57;;;10.80;72.80;;;;;;5012343;28;20490;-75
2021/03/30 02:46:26;;;;;;;14.27;4.10;;;10.70;72.80;;;;;;5008955;28;20416;-73
2021/03/30 02:48:53;;;;;;;8.90;3.95;;;10.70;73.10;;;;;;5015035;28;20076;-73
2021/03/30 02:51:25;;;;;;;8.13;3.85;;;10.60;73.30;;;;;;5014604;28;20599;-73
2021/03/30 02:53:53;;;;;;;10.70;4.20;;;10.60;73.50;;;;;;5008848;28;20041;-73
2021/03/30 02:56:20;;;;;;;11.18;4.55;;;10.60;73.50;;;;;;5010914;28;20038;-75
2021/03/30 02:58:45;;;;;;;10.95;4.35;;;10.60;73.70;;;;;;5014309;28;20104;-73
2021/03/30 03:01:14;;;;;;;13.10;4.43;;;10.60;73.80;;;;;;5013238;28;20125;-73
2021/03/30 03:03:40;;;;;;;11.00;3.97;;;10.50;73.80;;;;;;5006223;28;20436;-73
2021/03/30 03:06:06;;;;;;;6.13;3.80;;;10.50;73.90;;;;;;5011041;28;20037;-74
2021/03/30 03:08:33;;;;;;;10.75;4.03;;;10.60;74.30;;;;;;5000598;28;20034;-75
2021/03/30 03:11:00;;;;;;;9.63;4.20;;;10.50;74.10;;;;;;5009888;28;20034;-75
2021/03/30 03:13:27;;;;;;;12.70;4.80;;;10.50;74.20;;;;;;5014387;28;20361;-73
2021/03/30 03:15:52;;;;;;;13.73;4.70;;;10.40;74.50;;;;;;5014019;28;20034;-75
2021/03/30 03:18:19;;;;;;;12.63;4.38;;;10.40;75.00;;;;;;5014198;28;20604;-75
2021/03/30 03:20:48;;;;;;;8.52;4.63;;;10.40;74.90;;;;;;5013879;28;20026;-75
2021/03/30 03:23:14;;;;;;;12.65;4.22;;;10.30;75.00;;;;;;5013847;28;20026;-75
2021/03/30 03:25:43;;;;;;;11.38;4.65;;;10.30;75.20;;;;;;4996044;28;20040;-75
2021/03/30 03:28:09;;;;;;;16.38;4.95;;;10.30;75.20;;;;;;4993889;28;20027;-73
2021/03/30 03:30:35;;;;;;;11.05;4.28;;;10.30;75.20;;;;;;4992736;28;20440;-75
2021/03/30 03:33:08;;;;;;;10.25;4.10;;;10.30;75.30;;;;;;4994536;28;20042;-73
2021/03/30 03:35:35;;;;;;;9.38;4.68;;;10.20;75.40;;;;;;4994171;28;20485;-75
2021/03/30 03:38:02;;;;;;;13.27;4.97;;;10.20;75.80;;;;;;4995225;28;20022;-75
2021/03/30 03:40:28;;;;;;;10.40;4.45;;;10.20;75.90;;;;;;4995255;28;20040;-73
2021/03/30 03:42:54;;;;;;;14.18;4.40;;;10.20;76.10;;;;;;4994740;28;20061;-75
2021/03/30 03:45:20;;;;;;;10.57;4.60;;;10.20;76.30;;;;;;4993842;28;20595;-75
2021/03/30 03:47:46;;;;;;;8.48;4.50;;;10.20;76.50;;;;;;4994015;28;20046;-75
2021/03/30 03:50:12;;;;;;;10.82;4.82;;;10.10;76.40;;;;;;4994164;28;20041;-76
2021/03/30 03:52:44;;;;;;;13.68;5.78;;;10.10;76.40;;;;;;4993846;28;20097;-75
2021/03/30 03:55:12;;;;;;;13.52;5.10;;;10.10;76.90;;;;;;4993997;28;20057;-75
2021/03/30 03:57:57;;;;;;;7.97;4.60;;;10.10;77.00;;;;;;4993844;28;20026;-73
2021/03/30 04:00:25;;;;;;;9.35;4.38;;;10.10;77.10;;;;;;4993803;28;20034;-75
2021/03/30 04:02:56;;;;;;;12.38;4.68;;;10.10;77.30;;;;;;4993787;28;20023;-73
2021/03/30 04:05:26;;;;;;;8.80;4.30;;;10.20;77.40;;;;;;4994084;28;20038;-73
2021/03/30 04:07:59;;;;;;;7.40;4.25;;;10.20;77.30;;;;;;4991123;28;20026;-73
2021/03/30 04:10:28;;;;;;;10.48;4.30;;;10.20;77.10;;;;;;5004915;28;20495;-75
2021/03/30 04:12:54;;;;;;;11.70;4.20;;;10.20;77.00;;;;;;5012477;28;20029;-75
2021/03/30 04:15:22;;;;;;;10.45;4.38;;;10.30;76.80;;;;;;5012555;28;20033;-75
2021/03/30 04:17:49;;;;;;;13.88;4.65;;;10.30;76.60;;;;;;5011674;28;20061;-75
2021/03/30 04:20:16;;;;;;;15.80;4.80;;;10.30;76.80;;;;;;5013048;28;20152;-73
2021/03/30 04:22:46;;;;;;;14.00;4.35;;;10.20;76.80;;;;;;5012936;28;20095;-75
2021/03/30 04:25:12;;;;;;;16.35;4.53;;;10.20;76.90;;;;;;5009390;28;20546;-75
2021/03/30 04:27:37;;;;;;;13.00;4.72;;;10.20;76.90;;;;;;4999853;28;20104;-75
2021/03/30 04:30:04;;;;;;;12.48;4.53;;;10.20;77.10;;;;;;5012714;28;20036;-75
2021/03/30 04:32:30;;;;;;;7.22;4.05;;;10.10;77.20;;;;;;5000749;28;20030;-73
2021/03/30 04:34:56;;;;;;;10.50;4.70;;;10.10;77.40;;;;;;5012970;28;20449;-75
2021/03/30 04:37:21;;;;;;;8.23;4.32;;;10.10;77.40;;;;;;5006755;28;20314;-75
2021/03/30 04:39:47;;;;;;;15.73;5.50;;;10.20;77.20;;;;;;5008841;28;20034;-73
2021/03/30 04:42:13;;;;;;;10.23;4.32;;;10.20;77.10;;;;;;5012666;28;20489;-74
2021/03/30 04:44:39;;;;;;;18.00;4.95;;;10.10;77.20;;;;;;5003917;28;20031;-73
2021/03/30 04:47:05;;;;;;;16.08;4.82;;;10.10;77.20;;;;;;5011732;28;20113;-75
2021/03/30 04:49:31;;;;;;;16.00;4.70;;;10.10;77.30;;;;;;5012987;28;20179;-75
2021/03/30 04:51:56;;;;;;;12.48;4.82;;;10.00;77.50;;;;;;5012556;28;20104;-73
2021/03/30 04:54:22;;;;;;;21.83;5.15;;;10.10;77.50;;;;;;4993855;28;20499;-75
2021/03/30 04:56:48;;;;;;;18.60;4.88;;;10.00;77.40;;;;;;4996380;28;20089;-73
2021/03/30 04:59:13;;;;;;;17.08;4.72;;;10.00;77.60;;;;;;5005155;28;20083;-73
2021/03/30 05:01:39;;;;;;;15.50;5.57;;;10.00;77.60;;;;;;5012541;28;20033;-73
2021/03/30 05:04:05;;;;;;;18.73;6.80;;;10.00;77.60;;;;;;4993165;28;20030;-73
2021/03/30 05:06:31;;;;;;;30.02;10.32;;;9.90;77.80;;;;;;4999689;28;20095;-73
2021/03/30 05:08:57;;;;;;;35.47;11.93;;;9.90;78.20;;;;;;4991423;28;20038;-75
2021/03/30 05:11:23;;;;;;;36.55;10.73;;;9.90;78.40;;;;;;5011510;28;20084;-73
2021/03/30 05:13:48;;;;;;;38.90;8.93;;;9.80;78.50;;;;;;5010641;28;20397;-75
2021/03/30 05:16:14;;;;;;;41.42;8.07;;;9.80;78.80;;;;;;5012149;28;20030;-75
2021/03/30 05:18:41;;;;;;;23.95;7.40;;;9.70;78.90;;;;;;5011982;28;20145;-73
2021/03/30 05:21:07;;;;;;;23.42;6.32;;;9.60;79.00;;;;;;5012440;28;20362;-75
2021/03/30 05:23:33;;;;;;;27.17;6.32;;;9.60;79.30;;;;;;5010199;28;20160;-73
2021/03/30 05:25:59;;;;;;;24.23;6.50;;;9.50;79.10;;;;;;4992621;28;20105;-76
2021/03/30 05:28:25;;;;;;;26.35;6.65;;;9.50;79.00;;;;;;5009511;28;20037;-73
2021/03/30 05:30:50;;;;;;;26.92;6.55;;;9.50;79.10;;;;;;5011596;28;20034;-74
2021/03/30 05:33:16;;;;;;;24.45;6.18;;;9.50;78.70;;;;;;4989165;28;20037;-76
2021/03/30 05:35:42;;;;;;;36.83;6.60;;;9.40;78.80;;;;;;4996484;28;20032;-73
2021/03/30 05:38:08;;;;;;;32.97;6.80;;;9.40;78.60;;;;;;4997356;28;20502;-73
2021/03/30 05:40:34;;;;;;;19.80;7.10;;;9.50;78.50;;;;;;5015570;28;20045;-73
2021/03/30 05:43:00;;;;;;;23.52;6.53;;;9.50;78.10;;;;;;5007361;28;20100;-75
2021/03/30 05:45:25;;;;;;;19.98;6.57;;;9.50;77.80;;;;;;5002355;28;20030;-75
2021/03/30 05:47:54;;;;;;;27.17;7.07;;;9.50;77.50;;;;;;5015454;28;20050;-73
2021/03/30 05:50:22;;;;;;;28.05;7.05;;;9.60;77.40;;;;;;5010304;28;20038;-73
2021/03/30 05:53:05;;;;;;;17.98;5.95;;;9.60;77.50;;;;;;5009432;28;20026;-72
2021/03/30 05:55:35;;;;;;;32.70;6.28;;;9.60;77.10;;;;;;5005835;28;20102;-72
2021/03/30 05:58:05;;;;;;;33.45;5.70;;;9.60;77.00;;;;;;5015332;28;20389;-76
2021/03/30 06:00:42;;;;;;;29.48;11.05;;;9.60;77.10;;;;;;5015614;28;20022;-76
2021/03/30 06:03:22;;;;;;;29.75;8.52;;;9.50;77.40;;;;;;5010491;28;20438;-72
2021/03/30 06:05:52;;;;;;;27.88;11.25;;;9.50;77.30;;;;;;5009678;28;20048;-77
2021/03/30 06:08:21;;;;;;;49.85;20.48;;;9.60;77.20;;;;;;5001496;28;20042;-77
2021/03/30 06:10:50;;;;;;;34.47;15.98;;;9.60;77.00;;;;;;4990635;28;20474;-77
2021/03/30 06:13:35;;;;;;;15.45;7.38;;;9.60;76.80;;;;;;4999864;28;20033;-79
2021/03/30 06:16:22;;;;;;;16.48;5.45;;;9.60;76.80;;;;;;4991987;28;20580;-73
2021/03/30 06:18:59;;;;;;;21.88;5.10;;;9.60;76.80;;;;;;4992877;28;20027;-72
2021/03/30 06:21:24;;;;;;;19.15;7.88;;;9.60;77.00;;;;;;4997090;28;20097;-73
2021/03/30 06:23:50;;;;;;;20.48;9.13;;;9.60;76.70;;;;;;5005786;28;20499;-78
2021/03/30 06:26:16;;;;;;;23.40;11.93;;;9.70;76.70;;;;;;5002516;28;20083;-78
2021/03/30 06:28:42;;;;;;;30.73;11.27;;;9.70;76.60;;;;;;5009196;28;20068;-73
2021/03/30 06:31:11;;;;;;;24.75;7.22;;;9.70;76.40;;;;;;5006283;28;20062;-73
2021/03/30 06:33:58;;;;;;;21.83;5.82;;;9.80;76.30;;;;;;5000749;28;20026;-78
2021/03/30 06:36:25;;;;;;;21.92;7.05;;;9.80;76.20;;;;;;4998445;28;20026;-78
2021/03/30 06:39:01;;;;;;;23.42;6.15;;;9.90;76.10;;;;;;5003082;28;20109;-74
2021/03/30 06:44:26;;;;;;;20.02;8.25;;;10.10;74.80;;;;;;4989082;28;20066;-78
2021/03/30 06:46:59;;;;;;;22.38;10.70;;;10.20;74.60;;;;;;4996628;28;20539;-73
2021/03/30 06:49:27;;;;;;;26.45;9.23;;;10.30;74.60;;;;;;4993489;28;20030;-78
2021/03/30 06:51:54;;;;;;;23.92;6.10;;;10.40;74.50;;;;;;4992702;28;20023;-77
2021/03/30 06:54:19;;;;;;;17.90;4.90;;;10.40;74.50;;;;;;4992875;28;20042;-78
2021/03/30 06:56:52;;;;;;;16.40;5.78;;;10.50;73.90;;;;;;5008795;28;20021;-73
2021/03/30 06:59:19;;;;;;;14.45;5.63;;;10.60;73.50;;;;;;4999334;28;20474;-73
2021/03/30 07:01:48;;;;;;;30.13;8.95;;;10.70;73.70;;;;;;4999339;28;20065;-76
2021/03/30 07:04:15;;;;;;;30.85;7.75;;;10.80;73.00;;;;;;4995358;28;20022;-78
2021/03/30 07:06:42;;;;;;;35.05;8.73;;;10.90;72.80;;;;;;4993305;28;20100;-78
2021/03/30 07:09:09;;;;;;;21.77;7.05;;;11.00;72.30;;;;;;4989215;28;20064;-77
2021/03/30 07:11:39;;;;;;;22.27;5.45;;;11.10;72.10;;;;;;4990528;28;20026;-77
2021/03/30 07:14:05;;;;;;;15.88;4.70;;;11.20;71.20;;;;;;4994139;28;20026;-73
2021/03/30 07:16:35;;;;;;;11.98;5.22;;;11.40;70.40;;;;;;5004323;28;20041;-77
2021/03/30 07:19:02;;;;;;;13.15;4.32;;;11.50;70.40;;;;;;4991870;28;20030;-77
2021/03/30 07:21:46;;;;;;;10.98;5.28;;;11.70;69.70;;;;;;4995951;28;20504;-74
2021/03/30 07:24:15;;;;;;;11.82;4.90;;;11.90;69.30;;;;;;4998162;28;20607;-73
2021/03/30 07:26:55;;;;;;;18.35;4.60;;;12.10;67.80;;;;;;4992656;28;20026;-78
2021/03/30 07:29:36;;;;;;;10.85;4.72;;;12.30;66.80;;;;;;4991365;28;20489;-77
2021/03/30 07:32:24;;;;;;;12.50;4.50;;;12.50;65.40;;;;;;4993366;28;20425;-73
2021/03/30 07:35:03;;;;;;;10.73;4.35;;;12.80;65.00;;;;;;4994365;28;20027;-78
2021/03/30 07:37:47;;;;;;;8.18;3.90;;;13.10;63.50;;;;;;4994929;28;20030;-73
2021/03/30 07:40:14;;;;;;;12.05;3.90;;;13.30;62.40;;;;;;4995969;28;20026;-77
2021/03/30 07:42:42;;;;;;;15.00;3.30;;;13.40;61.40;;;;;;4990460;28;20027;-73
2021/03/30 07:45:10;;;;;;;15.35;3.60;;;13.50;61.00;;;;;;4996370;28;20033;-80
2021/03/30 07:47:37;;;;;;;10.70;3.40;;;13.70;59.60;;;;;;5001291;28;20633;-78
2021/03/30 07:50:06;;;;;;;15.13;3.97;;;13.80;59.50;;;;;;4995583;28;20030;-72
2021/03/30 07:52:39;;;;;;;15.57;4.03;;;13.80;59.70;;;;;;4994565;28;20521;-78
2021/03/30 07:55:25;;;;;;;10.90;3.95;;;14.20;59.60;;;;;;4995178;28;20489;-73
2021/03/30 07:58:07;;;;;;;19.23;4.13;;;16.10;54.30;;;;;;5002399;28;20034;-73
2021/03/30 08:00:33;;;;;;;12.67;3.90;;;18.40;47.70;;;;;;5000161;28;20054;-73
2021/03/30 08:03:08;;;;;;;15.02;4.43;;;19.40;44.00;;;;;;4992478;28;20103;-79
2021/03/30 08:05:34;;;;;;;14.25;3.72;;;19.80;42.70;;;;;;4997503;28;20034;-77
2021/03/30 08:08:00;;;;;;;11.30;3.72;;;20.20;42.20;;;;;;4989151;28;20506;-80
2021/03/30 08:10:35;;;;;;;10.18;3.17;;;20.20;40.60;;;;;;5065435;28;20338;-78
2021/03/30 08:13:35;;;;;;;15.32;3.58;;;20.00;41.40;;;;;;5043860;28;20095;-73
2021/03/30 08:16:07;;;;;;;12.90;3.30;;;20.80;40.90;;;;;;5041332;28;20386;-73
2021/03/30 08:18:36;;;;;;;8.40;3.80;;;20.80;39.60;;;;;;5039110;28;20059;-72
2021/03/30 08:21:20;;;;;;;11.38;3.75;;;19.70;41.20;;;;;;5045871;28;20013;-74
2021/03/30 08:23:52;;;;;;;8.77;3.38;;;19.70;41.80;;;;;;5044413;28;20025;-80
2021/03/30 08:26:20;;;;;;;8.02;3.90;;;20.80;39.00;;;;;;5040099;28;20036;-79
2021/03/30 08:28:49;;;;;;;8.50;3.53;;;20.50;39.70;;;;;;5043586;28;21333;-74
2021/03/30 08:31:45;;;;;;;11.38;3.45;;;21.00;38.80;;;;;;5044671;28;20032;-79
2021/03/30 08:34:17;;;;;;;11.88;3.50;;;20.50;39.90;;;;;;5035234;28;20053;-79
2021/03/30 08:36:49;;;;;;;10.20;3.38;;;20.20;40.30;;;;;;5046364;28;20033;-80
2021/03/30 08:39:18;;;;;;;9.63;3.30;;;21.00;39.00;;;;;;5042139;28;20040;-73
2021/03/30 08:41:45;;;;;;;9.82;3.55;;;19.70;40.70;;;;;;5039449;28;20025;-73
2021/03/30 08:44:16;;;;;;;12.65;3.58;;;19.00;44.40;;;;;;5046406;28;20018;-73
2021/03/30 08:46:44;;;;;;;6.40;3.38;;;20.30;41.70;;;;;;5060143;28;20117;-78
2021/03/30 08:49:31;;;;;;;12.43;3.40;;;20.70;40.30;;;;;;5045574;28;20113;-78
2021/03/30 08:52:17;;;;;;;9.98;3.25;;;22.20;38.50;;;;;;5043813;28;20396;-73
2021/03/30 08:54:48;;;;;;;14.02;3.70;;;21.50;38.20;;;;;;5051281;28;20060;-80
2021/03/30 08:57:36;;;;;;;9.38;3.60;;;21.90;37.90;;;;;;5047853;28;20025;-74
2021/03/30 09:00:06;;;;;;;7.25;3.42;;;23.10;37.10;;;;;;5044841;28;20024;-79
2021/03/30 09:02:31;;;;;;;12.45;3.65;;;23.10;36.20;;;;;;5046409;28;20040;-79
2021/03/30 09:04:57;;;;;;;11.98;3.80;;;21.80;37.60;;;;;;5050896;28;20026;-80
2021/03/30 09:07:23;;;;;;;9.23;3.40;;;21.80;38.50;;;;;;5044369;28;20075;-74
2021/03/30 09:09:49;;;;;;;7.63;3.67;;;21.80;38.60;;;;;;5045135;28;20503;-79
2021/03/30 09:12:19;;;;;;;9.25;3.72;;;22.30;38.30;;;;;;5040508;28;20029;-79
2021/03/30 09:14:57;;;;;;;9.55;3.70;;;22.70;37.80;;;;;;5042911;28;20447;-80
2021/03/30 09:17:23;;;;;;;12.68;3.97;;;22.90;37.60;;;;;;5043484;28;20112;-74
2021/03/30 09:19:50;;;;;;;7.18;3.38;;;23.30;35.80;;;;;;5044471;28;20584;-74
2021/03/30 09:22:29;;;;;;;9.55;3.67;;;23.90;35.30;;;;;;5029999;28;20025;-74
2021/03/30 09:27:27;;;;;;;7.63;3.30;;;23.60;36.10;;;;;;5030770;28;20041;-80
2021/03/30 09:29:55;;;;;;;6.88;3.50;;;24.10;35.00;;;;;;5031271;28;20036;-75
2021/03/30 09:32:23;;;;;;;8.73;3.33;;;24.40;34.70;;;;;;5029409;28;20061;-74
2021/03/30 09:34:49;;;;;;;9.25;3.53;;;25.10;34.00;;;;;;5030561;28;20068;-74
2021/03/30 09:37:15;;;;;;;9.25;3.85;;;23.90;34.70;;;;;;5029608;28;20488;-80
2021/03/30 09:39:41;;;;;;;8.15;3.30;;;24.40;34.80;;;;;;5027014;28;20029;-80
2021/03/30 09:42:08;;;;;;;7.90;3.40;;;24.30;35.10;;;;;;5027924;28;20396;-80
2021/03/30 09:44:43;;;;;;;11.48;3.30;;;25.50;34.50;;;;;;5032113;28;20071;-79
2021/03/30 09:47:11;;;;;;;7.97;3.00;;;24.80;33.80;;;;;;5033657;28;20112;-79
2021/03/30 09:49:38;;;;;;;12.63;3.70;;;24.80;35.40;;;;;;5032817;28;20579;-75
2021/03/30 09:52:04;;;;;;;8.85;3.88;;;25.30;34.30;;;;;;5030107;28;20496;-79
2021/03/30 09:54:37;;;;;;;11.07;3.50;;;24.80;35.60;;;;;;5030727;28;20029;-78
2021/03/30 09:57:15;;;;;;;11.85;3.45;;;25.40;33.60;;;;;;5037323;28;20037;-74
2021/03/30 09:59:50;;;;;;;9.43;3.67;;;25.70;33.40;;;;;;5035126;28;20556;-74
2021/03/30 10:02:31;;;;;;;10.88;3.03;;;25.80;32.30;;;;;;5030570;28;20445;-75
2021/03/30 10:05:01;;;;;;;9.73;3.30;;;26.20;34.20;;;;;;5038953;28;20431;-80
2021/03/30 10:07:38;;;;;;;9.30;3.40;;;26.70;32.70;;;;;;5037053;28;20492;-79
2021/03/30 10:10:09;;;;;;;8.70;3.38;;;27.10;31.90;;;;;;5028585;28;20125;-72
2021/03/30 10:12:58;;;;;;;13.23;4.03;;;26.80;32.10;;;;;;5031183;28;20200;-78
2021/03/30 10:15:40;;;;;;;15.80;9.10;;;27.10;32.00;;;;;;5032051;28;20033;-79
2021/03/30 10:18:07;;;;;;;12.88;3.85;;;27.30;32.00;;;;;;5019056;28;20033;-76
2021/03/30 10:20:47;;;;;;;6.85;3.47;;;27.00;34.30;;;;;;5024440;28;20518;-77
2021/03/30 10:23:15;;;;;;;9.15;3.25;;;25.90;34.00;;;;;;5027365;28;20033;-75
2021/03/30 10:25:42;;;;;;;14.32;3.20;;;25.50;34.80;;;;;;5030243;28;20552;-74
2021/03/30 10:28:09;;;;;;;10.02;3.45;;;25.10;37.20;;;;;;5029743;28;20021;-73
2021/03/30 10:30:42;;;;;;;8.80;5.57;;;24.60;35.70;;;;;;5029186;28;20048;-79
2021/03/30 10:33:12;;;;;;;9.48;2.90;;;24.70;38.30;;;;;;5029464;28;20029;-79
2021/03/30 10:35:38;;;;;;;10.25;3.20;;;24.00;37.70;;;;;;5028561;28;20104;-73
2021/03/30 10:38:04;;;;;;;11.63;3.15;;;23.70;38.80;;;;;;5029483;28;20033;-75
2021/03/30 10:40:32;;;;;;;10.82;3.10;;;23.60;39.40;;;;;;5027556;28;20317;-75
2021/03/30 10:43:19;;;;;;;12.00;3.25;;;23.30;39.20;;;;;;5031374;28;20029;-79
2021/03/30 10:45:44;;;;;;;9.10;3.30;;;23.30;40.40;;;;;;5023591;28;20515;-75
2021/03/30 10:48:10;;;;;;;10.30;3.25;;;23.30;41.70;;;;;;5029231;28;20045;-74
2021/03/30 10:50:36;;;;;;;30.83;17.58;;;23.50;39.60;;;;;;5030968;28;20120;-75
2021/03/30 10:53:02;;;;;;;18.73;7.10;;;23.70;39.40;;;;;;5032924;28;20030;-74
2021/03/30 10:55:29;;;;;;;10.60;3.60;;;23.70;39.80;;;;;;5022919;28;20024;-79
2021/03/30 10:57:54;;;;;;;10.88;3.17;;;23.50;41.50;;;;;;5028485;28;20049;-79
2021/03/30 11:00:20;;;;;;;9.05;2.72;;;23.60;40.20;;;;;;5031259;28;20067;-75
2021/03/30 11:02:46;;;;;;;15.18;3.20;;;23.70;40.30;;;;;;5030864;28;20041;-79
2021/03/30 11:05:12;;;;;;;10.77;3.53;;;23.60;41.00;;;;;;5023329;28;20397;-75
2021/03/30 11:07:38;;;;;;;12.98;3.40;;;23.60;41.90;;;;;;5037267;28;20033;-74
2021/03/30 11:10:09;;;;;;;11.43;4.80;;;23.60;40.70;;;;;;5034965;28;20458;-79
2021/03/30 11:12:35;;;;;;;12.45;4.93;;;23.70;41.60;;;;;;5027678;28;20029;-74
2021/03/30 11:15:05;;;;;;;10.85;3.20;;;23.60;40.30;;;;;;5023035;28;20084;-79
2021/03/30 11:17:31;;;;;;;9.90;3.00;;;23.70;40.60;;;;;;5029274;28;20481;-74
2021/03/30 11:19:56;;;;;;;11.70;3.03;;;23.90;41.50;;;;;;5027285;28;20033;-74
2021/03/30 11:22:22;;;;;;;8.20;2.75;;;24.10;40.30;;;;;;5029911;28;20042;-74
2021/03/30 11:24:48;;;;;;;12.98;3.10;;;23.80;39.70;;;;;;5025270;28;20457;-79
2021/03/30 11:27:14;;;;;;;7.15;3.10;;;23.60;41.10;;;;;;5033423;28;20025;-74
2021/03/30 11:29:43;;;;;;;7.95;3.78;;;23.80;40.40;;;;;;5025214;28;20810;-74
2021/03/30 11:34:57;;;;;;;11.15;3.10;;;23.70;40.10;;;;;;5027004;28;20036;-79
2021/03/30 11:39:52;;;;;;;10.77;3.10;;;23.30;40.40;;;;;;5026138;28;20025;-74
2021/03/30 11:42:18;;;;;;;13.35;2.78;;;23.20;41.40;;;;;;5031089;28;20037;-74
2021/03/30 11:44:44;;;;;;;8.10;2.80;;;23.60;44.70;;;;;;5032306;28;20057;-72
2021/03/30 11:47:10;;;;;;;11.30;2.67;;;23.40;40.00;;;;;;5027886;28;20024;-74
2021/03/30 11:49:37;;;;;;;12.25;3.08;;;23.40;40.30;;;;;;5034792;28;20028;-79
2021/03/30 11:52:03;;;;;;;11.63;3.38;;;23.20;40.50;;;;;;5028587;28;20080;-79
2021/03/30 11:54:29;;;;;;;15.23;3.25;;;23.40;42.20;;;;;;5025347;28;20032;-74
2021/03/30 11:56:55;;;;;;;7.18;3.10;;;23.60;40.90;;;;;;5025825;28;20029;-74
2021/03/30 11:59:21;;;;;;;9.63;2.67;;;23.70;39.80;;;;;;5029893;28;20045;-74
2021/03/30 12:01:46;;;;;;;9.93;2.88;;;23.70;40.00;;;;;;5027770;28;20444;-79
2021/03/30 12:04:12;;;;;;;10.73;2.28;;;23.90;41.00;;;;;;5027753;28;20036;-74
2021/03/30 12:06:38;;;;;;;10.30;2.67;;;24.20;41.90;;;;;;5029085;28;20510;-73
2021/03/30 12:09:04;;;;;;;9.23;2.97;;;24.30;39.10;;;;;;5027540;28;20053;-72
2021/03/30 12:11:31;;;;;;;11.93;3.13;;;24.00;40.60;;;;;;5028700;28;20021;-73
2021/03/30 12:13:57;;;;;;;6.35;2.90;;;24.00;41.90;;;;;;5029160;28;20040;-78
2021/03/30 12:16:23;;;;;;;10.60;3.13;;;24.00;40.40;;;;;;5034300;28;20104;-76
2021/03/30 12:18:49;;;;;;;10.65;3.10;;;24.20;39.80;;;;;;5027824;28;20038;-73
2021/03/30 12:21:14;;;;;;;12.82;2.75;;;24.20;39.70;;;;;;5028328;28;20040;-73
2021/03/30 12:23:40;;;;;;;10.70;3.00;;;24.40;40.00;;;;;;5027806;28;20025;-76
2021/03/30 12:26:06;;;;;;;7.13;2.75;;;24.60;40.70;;;;;;5033477;28;20021;-73
2021/03/30 12:28:32;;;;;;;6.20;2.88;;;24.40;39.80;;;;;;5028489;28;20487;-77
2021/03/30 12:30:58;;;;;;;10.90;2.72;;;24.20;40.70;;;;;;5026981;28;20022;-73
2021/03/30 12:33:24;;;;;;;8.90;2.60;;;24.10;40.80;;;;;;5028328;28;20029;-72
2021/03/30 12:35:49;;;;;;;9.45;3.08;;;24.20;41.50;;;;;;5034932;28;20483;-72
2021/03/30 12:38:15;;;;;;;13.50;3.13;;;24.40;40.90;;;;;;5027345;28;20025;-73
2021/03/30 12:40:41;;;;;;;8.50;4.03;;;24.40;41.50;;;;;;5028408;28;20114;-73
2021/03/30 12:43:06;;;;;;;15.75;2.92;;;24.80;40.20;;;;;;5027048;28;20561;-78
2021/03/30 12:45:34;;;;;;;7.75;2.80;;;24.60;39.30;;;;;;5033052;28;20486;-73
2021/03/30 12:48:01;;;;;;;11.90;3.38;;;24.70;40.70;;;;;;5032283;28;20030;-72
2021/03/30 12:50:28;;;;;;;10.00;3.08;;;24.60;39.20;;;;;;5028356;28;20034;-74
2021/03/30 12:52:54;;;;;;;10.35;2.92;;;24.70;41.80;;;;;;5027506;28;20026;-76
2021/03/30 12:55:20;;;;;;;10.57;2.83;;;24.50;40.00;;;;;;5014835;28;20578;-77
2021/03/30 12:57:45;;;;;;;6.32;2.75;;;24.70;40.00;;;;;;5041083;28;20025;-73
2021/03/30 13:00:12;;;;;;;15.10;3.60;;;24.90;39.00;;;;;;5037317;28;20032;-73
2021/03/30 13:02:38;;;;;;;6.78;2.80;;;24.70;38.90;;;;;;5034466;28;20021;-79